Раздольная

Карта отелей и гостиниц, располагающихся рядом с аэропортом Раздольная :

Раздольная Краснодарский край 45° 25' 20.3988" N, 39° 32' 23.82" E
Код аэродрома ИКАО
ZAF7
Код аэродрома RU
ЗАФ7
Координаты
N45.42233° E039.53995°
Превышение над уровнем моря
60
Основная полоса
09/27
Курс магнитный
088/268
Длина основной ВПП
435
Ширина основной ВПП
18
Покрытие основной ВПП
Твёрдое (асфальт)
Освещение ВПП
Нет
Тип: 
Аэродром
Класс аэродрома: 
Принадлежность: 
ГА
Статус: 
Действующий
Сайт: 
E-mail аэродрома: 
Страна: 
Россия
Регион: 
Краснодарский край
Город: 
Дополнительная информация: 
Площадка АХР.

Найти трансфер

С помощью этой формы Вы можете найти трансфер из аэропорта Раздольная в город, аэропорт или вокзал:

Погода в аэропортах:

Авиационная погода в Новокузнецке

Регион: 
Погода METAR: 
UNWW 282200Z 10001MPS 6000 0200S FG NSC 10/10 Q1008 R19/09//60 NOSIG RMK QFE729
Время наблюдения
2022-06-28T22:00:00Z
Температура C
10.0
Точка росы
10.0
Направление ветра
100
Скорость ветра (узлы)
2
Метео видимость
3.73
Облачность
CLR
Нижняя граница облачности (футы)
Явления погоды
FG
Условия полета
MVFR
Аэропорт подробнее: 
CLR — нет облаков ниже 3000 м
FG – туман (небо не видно, температура воздуха выше нуля или ноль);

Авиационная погода в Магнитогорске

Погода METAR: 
USCM 282200Z 31003MPS 5000 BR SCT040CB 04/02 Q1009 R36/090060 TEMPO 1500 BR RMK QFE719
Время наблюдения
2022-06-28T22:00:00Z
Температура C
4.0
Точка росы
2.0
Направление ветра
310
Скорость ветра (узлы)
6
Метео видимость
3.11
Облачность
SCT
Нижняя граница облачности (футы)
4000
Явления погоды
BR
Условия полета
MVFR
Аэропорт подробнее: 
SCT – разбросанная отдельная облачность;
BR – дымка (видимость от 1 до 9 км);

Авиационная погода в Гродно

Регион: 
Погода METAR: 
UMMG 300400Z 03002MPS 5000 BR NSC 19/18 Q1015 NOSIG
Время наблюдения
2022-06-30T04:00:00Z
Температура C
19.0
Точка росы
18.0
Направление ветра
30
Скорость ветра (узлы)
4
Метео видимость
3.11
Облачность
CLR
Нижняя граница облачности (футы)
Явления погоды
BR
Условия полета
MVFR
Аэропорт подробнее: 
CLR — нет облаков ниже 3000 м
BR – дымка (видимость от 1 до 9 км);

Авиационная погода в Бухте Провидения

Погода METAR: 
UHMD 282200Z 20004MPS 2500 BR OVC003 06/05 Q1018 RMK QBB110 MT OBSC QFE763/1017
Время наблюдения
2022-06-28T22:00:00Z
Температура C
6.0
Точка росы
5.0
Направление ветра
200
Скорость ветра (узлы)
8
Метео видимость
1.55
Облачность
OVC
Нижняя граница облачности (футы)
300
Явления погоды
BR
Условия полета
LIFR
Аэропорт подробнее: 
OVC – сплошная облачность;
BR – дымка (видимость от 1 до 9 км);